sensor_id;sensor_type;location;lat;lon;timestamp;pressure;altitude;pressure_sealevel;temperature;humidity
54329;BME280;40710;51.120;13.136;2023-06-10T00:01:29;99229.63;;;22.62;49.88
54329;BME280;40710;51.120;13.136;2023-06-10T00:03:54;99227.91;;;22.61;49.77
54329;BME280;40710;51.120;13.136;2023-06-10T00:06:18;99238.59;;;22.44;50.06
54329;BME280;40710;51.120;13.136;2023-06-10T00:08:43;99237.66;;;22.62;49.67
54329;BME280;40710;51.120;13.136;2023-06-10T00:11:07;99238.59;;;22.53;49.66
54329;BME280;40710;51.120;13.136;2023-06-10T00:13:32;99239.81;;;22.58;49.48
54329;BME280;40710;51.120;13.136;2023-06-10T00:15:57;99239.88;;;22.32;50.18
54329;BME280;40710;51.120;13.136;2023-06-10T00:18:21;99248.41;;;22.09;50.85
54329;BME280;40710;51.120;13.136;2023-06-10T00:20:46;99247.34;;;22.55;49.72
54329;BME280;40710;51.120;13.136;2023-06-10T00:23:13;99245.28;;;22.49;49.71
54329;BME280;40710;51.120;13.136;2023-06-10T00:25:37;99254.19;;;22.57;49.56
54329;BME280;40710;51.120;13.136;2023-06-10T00:28:02;99249.91;;;22.38;50.11
54329;BME280;40710;51.120;13.136;2023-06-10T00:30:27;99258.78;;;22.31;49.93
54329;BME280;40710;51.120;13.136;2023-06-10T00:32:51;99266.34;;;21.91;51.21
54329;BME280;40710;51.120;13.136;2023-06-10T00:35:16;99278.38;;;21.87;51.49
54329;BME280;40710;51.120;13.136;2023-06-10T00:37:40;99278.31;;;21.79;51.63
54329;BME280;40710;51.120;13.136;2023-06-10T00:40:06;99285.72;;;21.85;51.83
54329;BME280;40710;51.120;13.136;2023-06-10T00:42:31;99281.84;;;21.79;52.05
54329;BME280;40710;51.120;13.136;2023-06-10T00:44:55;99285.69;;;21.59;52.30
54329;BME280;40710;51.120;13.136;2023-06-10T00:47:20;99285.03;;;21.65;52.11
54329;BME280;40710;51.120;13.136;2023-06-10T00:49:46;99271.53;;;21.66;51.95
54329;BME280;40710;51.120;13.136;2023-06-10T00:52:11;99273.81;;;21.43;52.43
54329;BME280;40710;51.120;13.136;2023-06-10T00:54:37;99269.00;;;21.65;52.20
54329;BME280;40710;51.120;13.136;2023-06-10T00:57:04;99272.06;;;21.96;51.60
54329;BME280;40710;51.120;13.136;2023-06-10T00:59:29;99276.50;;;21.61;52.53
54329;BME280;40710;51.120;13.136;2023-06-10T01:01:55;99266.84;;;21.86;51.76
54329;BME280;40710;51.120;13.136;2023-06-10T01:04:20;99269.59;;;21.77;51.95
54329;BME280;40710;51.120;13.136;2023-06-10T01:06:52;99270.28;;;21.79;52.23
54329;BME280;40710;51.120;13.136;2023-06-10T01:09:38;99270.59;;;21.40;53.13
54329;BME280;40710;51.120;13.136;2023-06-10T01:12:15;99270.31;;;21.25;53.25
54329;BME280;40710;51.120;13.136;2023-06-10T01:14:41;99271.81;;;21.27;53.11
54329;BME280;40710;51.120;13.136;2023-06-10T01:17:09;99270.38;;;21.33;53.07
54329;BME280;40710;51.120;13.136;2023-06-10T01:19:34;99267.53;;;21.34;53.57
54329;BME280;40710;51.120;13.136;2023-06-10T01:22:00;99271.34;;;21.14;53.77
54329;BME280;40710;51.120;13.136;2023-06-10T01:24:26;99266.88;;;21.50;53.22
54329;BME280;40710;51.120;13.136;2023-06-10T01:26:52;99276.47;;;21.43;53.37
54329;BME280;40710;51.120;13.136;2023-06-10T01:29:31;99275.72;;;21.51;52.93
54329;BME280;40710;51.120;13.136;2023-06-10T01:32:21;99281.69;;;21.27;53.90
54329;BME280;40710;51.120;13.136;2023-06-10T01:34:48;99284.94;;;21.21;53.74
54329;BME280;40710;51.120;13.136;2023-06-10T01:37:17;99275.94;;;21.40;53.27
54329;BME280;40710;51.120;13.136;2023-06-10T01:39:43;99287.09;;;21.17;54.06
54329;BME280;40710;51.120;13.136;2023-06-10T01:42:08;99286.63;;;21.04;54.29
54329;BME280;40710;51.120;13.136;2023-06-10T01:44:34;99284.09;;;21.02;53.97
54329;BME280;40710;51.120;13.136;2023-06-10T01:46:59;99294.59;;;20.86;54.40
54329;BME280;40710;51.120;13.136;2023-06-10T01:49:23;99297.88;;;20.80;54.46
54329;BME280;40710;51.120;13.136;2023-06-10T01:51:48;99296.84;;;21.08;54.24
54329;BME280;40710;51.120;13.136;2023-06-10T01:54:13;99302.28;;;20.99;54.12
54329;BME280;40710;51.120;13.136;2023-06-10T01:56:37;99302.56;;;20.95;54.53
54329;BME280;40710;51.120;13.136;2023-06-10T01:59:02;99312.72;;;20.92;54.51
54329;BME280;40710;51.120;13.136;2023-06-10T02:01:27;99314.19;;;20.39;55.15
54329;BME280;40710;51.120;13.136;2023-06-10T02:03:51;99322.13;;;20.58;54.86
54329;BME280;40710;51.120;13.136;2023-06-10T02:06:16;99330.84;;;19.94;56.95
54329;BME280;40710;51.120;13.136;2023-06-10T02:08:40;99330.22;;;20.19;56.10
54329;BME280;40710;51.120;13.136;2023-06-10T02:11:05;99327.94;;;20.34;56.13
54329;BME280;40710;51.120;13.136;2023-06-10T02:13:31;99323.78;;;20.22;55.84
54329;BME280;40710;51.120;13.136;2023-06-10T02:15:56;99327.28;;;20.23;56.43
54329;BME280;40710;51.120;13.136;2023-06-10T02:18:21;99332.06;;;20.19;56.69
54329;BME280;40710;51.120;13.136;2023-06-10T02:20:46;99325.56;;;20.41;55.79
54329;BME280;40710;51.120;13.136;2023-06-10T02:23:11;99326.81;;;20.37;56.28
54329;BME280;40710;51.120;13.136;2023-06-10T02:25:35;99329.28;;;20.01;57.08
54329;BME280;40710;51.120;13.136;2023-06-10T02:28:00;99328.28;;;20.21;56.44
54329;BME280;40710;51.120;13.136;2023-06-10T02:30:25;99338.69;;;19.66;57.69
54329;BME280;40710;51.120;13.136;2023-06-10T02:32:49;99340.78;;;19.62;57.82
54329;BME280;40710;51.120;13.136;2023-06-10T02:35:15;99333.91;;;19.40;58.61
54329;BME280;40710;51.120;13.136;2023-06-10T02:37:40;99330.41;;;19.59;58.65
54329;BME280;40710;51.120;13.136;2023-06-10T02:40:05;99327.44;;;20.11;56.91
54329;BME280;40710;51.120;13.136;2023-06-10T02:42:30;99320.59;;;19.99;56.90
54329;BME280;40710;51.120;13.136;2023-06-10T02:44:54;99330.25;;;20.00;57.29
54329;BME280;40710;51.120;13.136;2023-06-10T02:47:19;99343.50;;;19.82;58.21
54329;BME280;40710;51.120;13.136;2023-06-10T02:49:44;99339.25;;;19.70;58.08
54329;BME280;40710;51.120;13.136;2023-06-10T02:52:08;99331.13;;;19.91;57.87
54329;BME280;40710;51.120;13.136;2023-06-10T02:54:33;99333.94;;;19.99;57.24
54329;BME280;40710;51.120;13.136;2023-06-10T02:56:57;99339.13;;;20.00;56.93
54329;BME280;40710;51.120;13.136;2023-06-10T02:59:22;99334.91;;;19.98;57.09
54329;BME280;40710;51.120;13.136;2023-06-10T03:01:47;99340.66;;;19.74;58.15
54329;BME280;40710;51.120;13.136;2023-06-10T03:04:11;99340.09;;;19.60;58.16
54329;BME280;40710;51.120;13.136;2023-06-10T03:06:38;99338.88;;;19.74;58.02
54329;BME280;40710;51.120;13.136;2023-06-10T03:09:04;99336.72;;;19.68;58.02
54329;BME280;40710;51.120;13.136;2023-06-10T03:11:29;99346.69;;;19.46;58.40
54329;BME280;40710;51.120;13.136;2023-06-10T03:13:53;99344.00;;;19.56;58.52
54329;BME280;40710;51.120;13.136;2023-06-10T03:16:18;99332.53;;;19.75;57.92
54329;BME280;40710;51.120;13.136;2023-06-10T03:18:42;99348.22;;;19.59;58.59
54329;BME280;40710;51.120;13.136;2023-06-10T03:21:07;99341.78;;;20.00;56.99
54329;BME280;40710;51.120;13.136;2023-06-10T03:23:33;99339.53;;;19.67;57.95
54329;BME280;40710;51.120;13.136;2023-06-10T03:25:57;99343.06;;;19.67;58.19
54329;BME280;40710;51.120;13.136;2023-06-10T03:28:22;99340.66;;;19.74;57.89
54329;BME280;40710;51.120;13.136;2023-06-10T03:30:47;99348.50;;;19.56;58.25
54329;BME280;40710;51.120;13.136;2023-06-10T03:33:12;99351.63;;;19.90;57.32
54329;BME280;40710;51.120;13.136;2023-06-10T03:35:38;99350.09;;;19.78;58.02
54329;BME280;40710;51.120;13.136;2023-06-10T03:38:03;99351.44;;;19.53;58.45
54329;BME280;40710;51.120;13.136;2023-06-10T03:40:27;99356.22;;;19.69;57.66
54329;BME280;40710;51.120;13.136;2023-06-10T03:42:54;99362.94;;;19.43;58.12
54329;BME280;40710;51.120;13.136;2023-06-10T03:45:19;99359.75;;;19.50;58.17
54329;BME280;40710;51.120;13.136;2023-06-10T03:47:44;99358.50;;;19.63;57.60
54329;BME280;40710;51.120;13.136;2023-06-10T03:50:09;99368.16;;;19.64;57.74
54329;BME280;40710;51.120;13.136;2023-06-10T03:52:35;99360.03;;;20.15;56.36
54329;BME280;40710;51.120;13.136;2023-06-10T03:55:00;99360.75;;;19.97;57.02
54329;BME280;40710;51.120;13.136;2023-06-10T03:57:24;99383.94;;;19.17;59.65
54329;BME280;40710;51.120;13.136;2023-06-10T03:59:50;99373.88;;;19.40;58.97
54329;BME280;40710;51.120;13.136;2023-06-10T04:02:14;99372.63;;;19.54;59.06
54329;BME280;40710;51.120;13.136;2023-06-10T04:04:39;99376.00;;;19.46;59.18
54329;BME280;40710;51.120;13.136;2023-06-10T04:07:04;99371.94;;;19.62;58.67
54329;BME280;40710;51.120;13.136;2023-06-10T04:09:29;99367.47;;;19.72;58.34
54329;BME280;40710;51.120;13.136;2023-06-10T04:11:53;99364.53;;;19.85;58.02
54329;BME280;40710;51.120;13.136;2023-06-10T04:14:18;99367.91;;;19.87;57.90
54329;BME280;40710;51.120;13.136;2023-06-10T04:16:42;99362.56;;;19.87;57.86
54329;BME280;40710;51.120;13.136;2023-06-10T04:19:07;99356.34;;;20.26;56.84
54329;BME280;40710;51.120;13.136;2023-06-10T04:21:32;99353.50;;;20.37;56.70
54329;BME280;40710;51.120;13.136;2023-06-10T04:23:57;99355.47;;;20.45;55.75
54329;BME280;40710;51.120;13.136;2023-06-10T04:26:21;99350.13;;;20.35;56.35
54329;BME280;40710;51.120;13.136;2023-06-10T04:28:46;99363.25;;;20.18;57.09
54329;BME280;40710;51.120;13.136;2023-06-10T04:31:11;99366.94;;;19.78;58.03
54329;BME280;40710;51.120;13.136;2023-06-10T04:33:36;99366.38;;;19.85;58.13
54329;BME280;40710;51.120;13.136;2023-06-10T04:36:00;99368.19;;;19.94;58.02
54329;BME280;40710;51.120;13.136;2023-06-10T04:38:25;99362.56;;;20.07;57.45
54329;BME280;40710;51.120;13.136;2023-06-10T04:40:49;99362.25;;;20.29;57.42
54329;BME280;40710;51.120;13.136;2023-06-10T04:43:14;99361.75;;;20.53;56.85
54329;BME280;40710;51.120;13.136;2023-06-10T04:45:38;99356.50;;;20.81;56.14
54329;BME280;40710;51.120;13.136;2023-06-10T04:48:03;99356.00;;;20.95;55.84
54329;BME280;40710;51.120;13.136;2023-06-10T04:50:28;99348.38;;;21.01;55.91
54329;BME280;40710;51.120;13.136;2023-06-10T04:52:52;99348.66;;;21.25;55.67
54329;BME280;40710;51.120;13.136;2023-06-10T04:55:17;99345.28;;;21.23;56.45
54329;BME280;40710;51.120;13.136;2023-06-10T04:57:41;99349.03;;;21.58;55.45
54329;BME280;40710;51.120;13.136;2023-06-10T05:00:06;99357.41;;;21.18;57.13
54329;BME280;40710;51.120;13.136;2023-06-10T05:02:32;99370.22;;;21.14;57.04
54329;BME280;40710;51.120;13.136;2023-06-10T05:04:57;99362.41;;;21.58;56.12
54329;BME280;40710;51.120;13.136;2023-06-10T05:07:22;99357.66;;;21.88;55.58
54329;BME280;40710;51.120;13.136;2023-06-10T05:09:46;99367.41;;;21.61;56.17
54329;BME280;40710;51.120;13.136;2023-06-10T05:12:11;99364.81;;;21.69;56.13
54329;BME280;40710;51.120;13.136;2023-06-10T05:14:35;99368.28;;;21.80;56.13
54329;BME280;40710;51.120;13.136;2023-06-10T05:17:00;99366.78;;;22.03;55.57
54329;BME280;40710;51.120;13.136;2023-06-10T05:19:25;99370.47;;;21.84;56.36
54329;BME280;40710;51.120;13.136;2023-06-10T05:21:49;99366.09;;;22.01;56.07
54329;BME280;40710;51.120;13.136;2023-06-10T05:24:14;99378.50;;;22.02;56.33
54329;BME280;40710;51.120;13.136;2023-06-10T05:26:38;99380.78;;;21.97;56.30
54329;BME280;40710;51.120;13.136;2023-06-10T05:29:08;99375.63;;;22.22;55.68
54329;BME280;40710;51.120;13.136;2023-06-10T05:31:33;99381.66;;;22.24;55.59
54329;BME280;40710;51.120;13.136;2023-06-10T05:33:58;99383.38;;;21.89;56.63
54329;BME280;40710;51.120;13.136;2023-06-10T05:36:22;99378.31;;;22.22;56.20
54329;BME280;40710;51.120;13.136;2023-06-10T05:38:49;99378.66;;;22.71;55.11
54329;BME280;40710;51.120;13.136;2023-06-10T05:41:14;99381.09;;;22.30;56.07
54329;BME280;40710;51.120;13.136;2023-06-10T05:43:38;99386.97;;;22.60;55.55
54329;BME280;40710;51.120;13.136;2023-06-10T05:46:03;99393.88;;;22.71;55.71
54329;BME280;40710;51.120;13.136;2023-06-10T05:48:27;99392.31;;;22.60;55.75
54329;BME280;40710;51.120;13.136;2023-06-10T05:50:52;99384.44;;;22.32;56.24
54329;BME280;40710;51.120;13.136;2023-06-10T05:53:16;99382.31;;;22.44;56.64
54329;BME280;40710;51.120;13.136;2023-06-10T05:55:45;99375.72;;;23.25;54.51
54329;BME280;40710;51.120;13.136;2023-06-10T05:58:10;99373.00;;;22.82;55.42
54329;BME280;40710;51.120;13.136;2023-06-10T06:00:36;99381.38;;;23.14;54.71
54329;BME280;40710;51.120;13.136;2023-06-10T06:03:01;99372.72;;;23.28;54.83
54329;BME280;40710;51.120;13.136;2023-06-10T06:05:25;99385.34;;;22.75;56.16
54329;BME280;40710;51.120;13.136;2023-06-10T06:07:50;99390.25;;;22.80;56.10
54329;BME280;40710;51.120;13.136;2023-06-10T06:10:17;99386.97;;;22.60;56.88
54329;BME280;40710;51.120;13.136;2023-06-10T06:12:41;99390.69;;;22.67;56.61
54329;BME280;40710;51.120;13.136;2023-06-10T06:15:06;99391.25;;;23.13;56.09
54329;BME280;40710;51.120;13.136;2023-06-10T06:17:32;99376.13;;;23.55;54.70
54329;BME280;40710;51.120;13.136;2023-06-10T06:19:56;99368.81;;;24.06;53.88
54329;BME280;40710;51.120;13.136;2023-06-10T06:22:21;99362.63;;;24.06;52.91
54329;BME280;40710;51.120;13.136;2023-06-10T06:24:46;99367.53;;;24.83;51.68
54329;BME280;40710;51.120;13.136;2023-06-10T06:27:11;99371.22;;;24.73;52.32
54329;BME280;40710;51.120;13.136;2023-06-10T06:29:35;99373.66;;;24.27;53.30
54329;BME280;40710;51.120;13.136;2023-06-10T06:32:00;99382.06;;;24.08;54.21
54329;BME280;40710;51.120;13.136;2023-06-10T06:34:24;99379.00;;;24.52;53.57
54329;BME280;40710;51.120;13.136;2023-06-10T06:36:49;99386.22;;;24.68;53.52
54329;BME280;40710;51.120;13.136;2023-06-10T06:39:14;99381.97;;;24.82;52.69
54329;BME280;40710;51.120;13.136;2023-06-10T06:41:38;99390.63;;;24.20;52.62
54329;BME280;40710;51.120;13.136;2023-06-10T06:44:03;99390.59;;;24.28;53.16
54329;BME280;40710;51.120;13.136;2023-06-10T06:46:27;99397.66;;;24.37;53.63
54329;BME280;40710;51.120;13.136;2023-06-10T06:48:52;99388.28;;;24.25;52.94
54329;BME280;40710;51.120;13.136;2023-06-10T06:51:17;99400.19;;;24.22;53.55
54329;BME280;40710;51.120;13.136;2023-06-10T06:53:41;99401.53;;;23.93;53.23
54329;BME280;40710;51.120;13.136;2023-06-10T06:56:09;99404.34;;;24.74;52.34
54329;BME280;40710;51.120;13.136;2023-06-10T06:58:33;99401.09;;;24.95;51.60
54329;BME280;40710;51.120;13.136;2023-06-10T07:00:58;99413.06;;;24.76;52.10
54329;BME280;40710;51.120;13.136;2023-06-10T07:03:22;99410.16;;;24.86;51.86
54329;BME280;40710;51.120;13.136;2023-06-10T07:05:47;99418.13;;;24.46;52.30
54329;BME280;40710;51.120;13.136;2023-06-10T07:08:11;99412.28;;;25.07;51.93
54329;BME280;40710;51.120;13.136;2023-06-10T07:10:36;99408.34;;;25.65;51.15
54329;BME280;40710;51.120;13.136;2023-06-10T07:13:02;99396.44;;;26.06;49.27
54329;BME280;40710;51.120;13.136;2023-06-10T07:15:26;99394.94;;;26.27;49.02
54329;BME280;40710;51.120;13.136;2023-06-10T07:17:51;99394.94;;;26.27;48.65
54329;BME280;40710;51.120;13.136;2023-06-10T07:20:15;99400.22;;;27.03;46.87
54329;BME280;40710;51.120;13.136;2023-06-10T07:22:41;99395.38;;;26.98;46.33
54329;BME280;40710;51.120;13.136;2023-06-10T07:25:06;99406.13;;;26.15;47.77
54329;BME280;40710;51.120;13.136;2023-06-10T07:27:31;99396.66;;;26.57;47.73
54329;BME280;40710;51.120;13.136;2023-06-10T07:29:55;99394.81;;;27.17;46.22
54329;BME280;40710;51.120;13.136;2023-06-10T07:32:20;99409.66;;;26.54;47.46
54329;BME280;40710;51.120;13.136;2023-06-10T07:34:46;99411.59;;;26.07;48.16
54329;BME280;40710;51.120;13.136;2023-06-10T07:37:11;99394.34;;;27.29;45.84
54329;BME280;40710;51.120;13.136;2023-06-10T07:39:35;99400.69;;;26.23;47.68
54329;BME280;40710;51.120;13.136;2023-06-10T07:42:00;99411.56;;;26.98;46.88
54329;BME280;40710;51.120;13.136;2023-06-10T07:44:25;99405.63;;;27.03;46.25
54329;BME280;40710;51.120;13.136;2023-06-10T07:46:49;99400.47;;;27.52;45.23
54329;BME280;40710;51.120;13.136;2023-06-10T07:49:14;99392.19;;;27.97;44.17
54329;BME280;40710;51.120;13.136;2023-06-10T07:51:39;99411.75;;;26.67;47.04
54329;BME280;40710;51.120;13.136;2023-06-10T07:54:03;99404.09;;;27.66;44.99
54329;BME280;40710;51.120;13.136;2023-06-10T07:56:28;99400.47;;;27.74;44.87
54329;BME280;40710;51.120;13.136;2023-06-10T07:58:52;99398.22;;;27.78;44.73
54329;BME280;40710;51.120;13.136;2023-06-10T08:01:17;99402.72;;;27.70;45.36
54329;BME280;40710;51.120;13.136;2023-06-10T08:03:42;99401.66;;;27.71;44.69
54329;BME280;40710;51.120;13.136;2023-06-10T08:06:06;99412.03;;;27.68;44.23
54329;BME280;40710;51.120;13.136;2023-06-10T08:08:33;99405.00;;;27.52;45.34
54329;BME280;40710;51.120;13.136;2023-06-10T08:11:00;99404.69;;;27.98;44.45
54329;BME280;40710;51.120;13.136;2023-06-10T08:13:24;99413.84;;;27.82;44.47
54329;BME280;40710;51.120;13.136;2023-06-10T08:15:49;99404.03;;;28.18;43.97
54329;BME280;40710;51.120;13.136;2023-06-10T08:18:15;99414.31;;;27.86;43.93
54329;BME280;40710;51.120;13.136;2023-06-10T08:20:39;99414.16;;;27.72;44.63
54329;BME280;40710;51.120;13.136;2023-06-10T08:23:04;99423.44;;;27.48;45.33
54329;BME280;40710;51.120;13.136;2023-06-10T08:25:28;99429.22;;;27.45;45.28
54329;BME280;40710;51.120;13.136;2023-06-10T08:27:53;99417.50;;;28.39;44.03
54329;BME280;40710;51.120;13.136;2023-06-10T08:30:20;99414.22;;;28.44;43.58
54329;BME280;40710;51.120;13.136;2023-06-10T08:32:45;99412.91;;;28.40;43.82
54329;BME280;40710;51.120;13.136;2023-06-10T08:35:09;99419.75;;;28.36;43.87
54329;BME280;40710;51.120;13.136;2023-06-10T08:37:34;99416.19;;;28.57;43.72
54329;BME280;40710;51.120;13.136;2023-06-10T08:39:59;99421.56;;;28.28;44.24
54329;BME280;40710;51.120;13.136;2023-06-10T08:45:07;99410.66;;;28.72;42.93
54329;BME280;40710;51.120;13.136;2023-06-10T08:47:39;99413.16;;;28.45;43.83
54329;BME280;40710;51.120;13.136;2023-06-10T08:50:06;99408.19;;;28.70;42.54
54329;BME280;40710;51.120;13.136;2023-06-10T08:52:36;99403.13;;;28.60;42.35
54329;BME280;40710;51.120;13.136;2023-06-10T08:55:11;99410.19;;;28.12;43.34
54329;BME280;40710;51.120;13.136;2023-06-10T08:57:36;99400.38;;;28.89;41.50
54329;BME280;40710;51.120;13.136;2023-06-10T09:00:00;99414.28;;;29.20;42.18
54329;BME280;40710;51.120;13.136;2023-06-10T09:02:27;99404.00;;;29.57;40.62
54329;BME280;40710;51.120;13.136;2023-06-10T09:04:52;99403.69;;;28.84;41.93
54329;BME280;40710;51.120;13.136;2023-06-10T09:07:17;99407.47;;;29.31;41.85
54329;BME280;40710;51.120;13.136;2023-06-10T09:09:43;99402.69;;;29.95;40.69
54329;BME280;40710;51.120;13.136;2023-06-10T09:12:09;99401.63;;;29.89;41.11
54329;BME280;40710;51.120;13.136;2023-06-10T09:14:34;99396.22;;;30.03;40.87
54329;BME280;40710;51.120;13.136;2023-06-10T09:16:59;99400.81;;;29.34;41.35
54329;BME280;40710;51.120;13.136;2023-06-10T09:19:26;99393.72;;;30.08;39.95
54329;BME280;40710;51.120;13.136;2023-06-10T09:21:51;99402.28;;;29.30;41.44
54329;BME280;40710;51.120;13.136;2023-06-10T09:24:15;99393.50;;;29.21;40.85
54329;BME280;40710;51.120;13.136;2023-06-10T09:26:42;99398.97;;;28.93;41.23
54329;BME280;40710;51.120;13.136;2023-06-10T09:29:08;99395.03;;;29.50;41.51
54329;BME280;40710;51.120;13.136;2023-06-10T09:31:35;99385.13;;;30.64;39.36
54329;BME280;40710;51.120;13.136;2023-06-10T09:34:08;99394.13;;;30.18;40.38
54329;BME280;40710;51.120;13.136;2023-06-10T09:36:34;99386.25;;;30.37;39.81
54329;BME280;40710;51.120;13.136;2023-06-10T09:38:59;99387.47;;;30.47;40.02
54329;BME280;40710;51.120;13.136;2023-06-10T09:41:40;99383.03;;;30.93;38.76
54329;BME280;40710;51.120;13.136;2023-06-10T09:44:15;99389.13;;;30.28;39.27
54329;BME280;40710;51.120;13.136;2023-06-10T09:46:41;99387.38;;;30.94;37.56
54329;BME280;40710;51.120;13.136;2023-06-10T09:49:05;99379.97;;;30.43;38.47
54329;BME280;40710;51.120;13.136;2023-06-10T09:51:30;99376.56;;;30.74;37.60
54329;BME280;40710;51.120;13.136;2023-06-10T09:53:55;99366.13;;;30.78;37.82
54329;BME280;40710;51.120;13.136;2023-06-10T09:56:19;99369.72;;;30.65;37.40
54329;BME280;40710;51.120;13.136;2023-06-10T09:58:45;99381.19;;;30.73;36.96
54329;BME280;40710;51.120;13.136;2023-06-10T10:01:12;99382.81;;;30.81;36.58
54329;BME280;40710;51.120;13.136;2023-06-10T10:03:44;99371.09;;;31.53;36.90
54329;BME280;40710;51.120;13.136;2023-06-10T10:06:10;99376.41;;;31.66;35.99
54329;BME280;40710;51.120;13.136;2023-06-10T10:08:35;99369.94;;;31.67;35.68
54329;BME280;40710;51.120;13.136;2023-06-10T10:11:02;99382.72;;;31.15;35.49
54329;BME280;40710;51.120;13.136;2023-06-10T10:13:27;99374.97;;;31.95;35.37
54329;BME280;40710;51.120;13.136;2023-06-10T10:15:53;99358.69;;;32.20;34.38
54329;BME280;40710;51.120;13.136;2023-06-10T10:18:20;99375.56;;;31.72;32.77
54329;BME280;40710;51.120;13.136;2023-06-10T10:20:53;99360.94;;;32.05;32.13
54329;BME280;40710;51.120;13.136;2023-06-10T10:23:26;99359.81;;;32.13;31.75
54329;BME280;40710;51.120;13.136;2023-06-10T10:25:55;99370.94;;;32.30;31.02
54329;BME280;40710;51.120;13.136;2023-06-10T10:28:24;99369.69;;;32.07;32.33
54329;BME280;40710;51.120;13.136;2023-06-10T10:30:54;99373.25;;;32.01;31.57
54329;BME280;40710;51.120;13.136;2023-06-10T10:33:33;99367.53;;;31.45;31.45
54329;BME280;40710;51.120;13.136;2023-06-10T10:36:00;99380.78;;;31.74;34.90
54329;BME280;40710;51.120;13.136;2023-06-10T10:38:25;99370.19;;;32.66;32.69
54329;BME280;40710;51.120;13.136;2023-06-10T10:40:51;99371.34;;;31.76;32.92
54329;BME280;40710;51.120;13.136;2023-06-10T10:43:17;99364.63;;;32.61;32.09
54329;BME280;40710;51.120;13.136;2023-06-10T10:45:45;99359.31;;;32.41;30.82
54329;BME280;40710;51.120;13.136;2023-06-10T10:48:11;99357.03;;;32.82;31.05
54329;BME280;40710;51.120;13.136;2023-06-10T10:50:36;99364.66;;;32.54;32.48
54329;BME280;40710;51.120;13.136;2023-06-10T10:53:03;99363.00;;;32.90;31.88
54329;BME280;40710;51.120;13.136;2023-06-10T10:55:28;99357.34;;;32.30;32.15
54329;BME280;40710;51.120;13.136;2023-06-10T10:58:03;99364.84;;;32.59;32.43
54329;BME280;40710;51.120;13.136;2023-06-10T11:00:36;99353.94;;;32.59;31.62
54329;BME280;40710;51.120;13.136;2023-06-10T11:03:07;99353.03;;;32.66;31.53
54329;BME280;40710;51.120;13.136;2023-06-10T11:05:40;99353.94;;;32.34;32.18
54329;BME280;40710;51.120;13.136;2023-06-10T11:08:08;99350.78;;;32.37;33.17
54329;BME280;40710;51.120;13.136;2023-06-10T11:10:34;99340.66;;;33.37;31.35
54329;BME280;40710;51.120;13.136;2023-06-10T11:13:00;99356.31;;;32.06;32.78
54329;BME280;40710;51.120;13.136;2023-06-10T11:15:26;99335.78;;;32.10;31.96
54329;BME280;40710;51.120;13.136;2023-06-10T11:29:01;99334.75;;;32.73;31.45
54329;BME280;40710;51.120;13.136;2023-06-10T11:34:02;99326.22;;;33.48;30.93
54329;BME280;40710;51.120;13.136;2023-06-10T11:36:28;99326.88;;;33.62;30.36
54329;BME280;40710;51.120;13.136;2023-06-10T11:38:56;99324.50;;;33.05;30.43
54329;BME280;40710;51.120;13.136;2023-06-10T11:41:21;99337.50;;;32.48;31.67
54329;BME280;40710;51.120;13.136;2023-06-10T11:43:46;99323.84;;;32.73;31.65
54329;BME280;40710;51.120;13.136;2023-06-10T11:46:13;99320.81;;;32.63;31.15
54329;BME280;40710;51.120;13.136;2023-06-10T11:48:38;99333.25;;;32.33;31.75
54329;BME280;40710;51.120;13.136;2023-06-10T11:51:07;99326.50;;;32.79;31.55
54329;BME280;40710;51.120;13.136;2023-06-10T11:53:32;99317.28;;;32.62;31.32
54329;BME280;40710;51.120;13.136;2023-06-10T11:55:56;99316.22;;;32.82;31.25
54329;BME280;40710;51.120;13.136;2023-06-10T11:58:22;99307.38;;;32.86;31.25
54329;BME280;40710;51.120;13.136;2023-06-10T12:00:54;99308.03;;;33.00;30.01
54329;BME280;40710;51.120;13.136;2023-06-10T12:03:20;99305.53;;;32.98;29.77
54329;BME280;40710;51.120;13.136;2023-06-10T12:06:06;99300.53;;;33.44;30.10
54329;BME280;40710;51.120;13.136;2023-06-10T12:08:31;99301.03;;;32.74;31.38
54329;BME280;40710;51.120;13.136;2023-06-10T12:10:57;99304.00;;;33.21;31.36
54329;BME280;40710;51.120;13.136;2023-06-10T12:13:23;99294.91;;;33.69;30.06
54329;BME280;40710;51.120;13.136;2023-06-10T12:15:50;99294.13;;;34.16;29.57
54329;BME280;40710;51.120;13.136;2023-06-10T12:18:22;99299.94;;;32.93;31.32
54329;BME280;40710;51.120;13.136;2023-06-10T12:20:48;99302.03;;;33.70;30.59
54329;BME280;40710;51.120;13.136;2023-06-10T12:23:14;99306.59;;;33.58;30.77
54329;BME280;40710;51.120;13.136;2023-06-10T12:25:39;99296.84;;;33.81;29.38
54329;BME280;40710;51.120;13.136;2023-06-10T12:28:04;99307.94;;;33.67;30.86
54329;BME280;40710;51.120;13.136;2023-06-10T12:30:29;99297.81;;;34.10;30.23
54329;BME280;40710;51.120;13.136;2023-06-10T12:32:55;99299.09;;;34.43;28.82
54329;BME280;40710;51.120;13.136;2023-06-10T12:35:21;99297.78;;;33.75;29.72
54329;BME280;40710;51.120;13.136;2023-06-10T12:37:59;99301.25;;;34.29;30.52
54329;BME280;40710;51.120;13.136;2023-06-10T12:40:28;99291.69;;;34.91;28.53
54329;BME280;40710;51.120;13.136;2023-06-10T12:42:56;99307.63;;;34.82;28.97
54329;BME280;40710;51.120;13.136;2023-06-10T12:45:27;99305.28;;;33.91;29.21
54329;BME280;40710;51.120;13.136;2023-06-10T12:48:04;99308.09;;;34.08;29.62
54329;BME280;40710;51.120;13.136;2023-06-10T12:50:29;99320.56;;;34.16;29.60
54329;BME280;40710;51.120;13.136;2023-06-10T12:52:53;99321.91;;;34.25;29.10
54329;BME280;40710;51.120;13.136;2023-06-10T12:55:18;99332.81;;;33.59;30.65
54329;BME280;40710;51.120;13.136;2023-06-10T12:57:50;99325.97;;;32.89;31.76
54329;BME280;40710;51.120;13.136;2023-06-10T13:00:15;99324.19;;;32.65;31.31